Terminal Aerodrome Forecast
Issued by NWS

Home | Current Version | Previous Version | Text Only | Print | Product List | Glossary On
Versions: 1 2 3 4 5 6 7 8 9 10 11 12 13 14 15 16 17 18 19 20 21 22 23 24 25 26 27
000
FTUS45 KGJT 242339
TAFTEX
TAF
KTEX 242339Z 2500/2524 21011G21KT P6SM -SHRA OVC050
     FM250200 22013G30KT P6SM VCSH OVC040 WS020/24040KT
     FM250400 23009KT P6SM VCSH OVC040 WS020/26035KT
     FM250600 24006KT 6SM -SHRASN OVC030
      TEMPO 2510/2514 26004KT 2SM -SHSN OVC015
     FM251700 27006KT P6SM -SHSNRA OVC035
     FM252100 32011G19KT 5SM -SHRASN OVC025=

USA.gov is the U.S. government's official web portal to all federal, state and local government web resources and services.